Time;durP1;ratioP1;P1;durP2;ratioP2;P2;SDS_P1;SDS_P2;PMS_P1;PMS_P2;Temp;Humidity;BMP_temperature;BMP_pressure;BME280_temperature;BME280_humidity;BME280_pressure;Samples;Min_cycle;Max_cycle;Signal;HPM_P1;HPM_P2
2022/06/16 00:00:15;;;;;;;3.03;0.90;;;18.60;99.90;;;;;;5108777;28;20701;-66
2022/06/16 00:02:51;;;;;;;4.63;0.90;;;18.80;99.90;;;;;;5095653;28;20180;-66
2022/06/16 00:05:23;;;;;;;3.63;0.80;;;19.20;99.90;;;;;;5094817;28;20167;-65
2022/06/16 00:07:52;;;;;;;3.43;0.70;;;19.40;99.90;;;;;;5094385;28;20191;-66
2022/06/16 00:10:21;;;;;;;4.57;1.00;;;19.50;99.90;;;;;;5094860;28;20203;-67
2022/06/16 00:12:48;;;;;;;4.17;0.73;;;19.00;99.90;;;;;;5087108;28;20178;-67
2022/06/16 00:15:20;;;;;;;4.13;1.07;;;19.10;99.90;;;;;;5096795;28;20223;-66
2022/06/16 00:17:47;;;;;;;7.97;0.93;;;19.50;99.90;;;;;;5093525;28;20265;-67
2022/06/16 00:20:15;;;;;;;9.53;1.30;;;19.00;99.90;;;;;;5094906;28;20537;-66
2022/06/16 00:22:43;;;;;;;6.83;1.27;;;19.10;99.90;;;;;;5094436;28;20311;-67
2022/06/16 00:25:12;;;;;;;3.13;1.20;;;19.50;99.90;;;;;;5093868;28;20613;-67
2022/06/16 00:27:41;;;;;;;1.87;0.80;;;19.90;99.90;;;;;;5094548;28;20183;-66
2022/06/16 00:30:10;;;;;;;1.67;0.80;;;19.70;99.90;;;;;;5076927;28;20188;-66
2022/06/16 00:32:41;;;;;;;0.80;0.50;;;19.90;99.90;;;;;;5094005;28;20179;-68
2022/06/16 00:35:10;;;;;;;7.77;1.80;;;19.50;99.90;;;;;;5093761;28;20218;-66
2022/06/16 00:37:37;;;;;;;6.93;1.40;;;19.40;99.90;;;;;;5091224;28;20281;-66
2022/06/16 00:40:06;;;;;;;2.73;0.80;;;19.30;99.90;;;;;;5086709;28;20278;-67
2022/06/16 00:42:33;;;;;;;2.80;1.23;;;19.20;99.90;;;;;;5088118;28;20644;-67
2022/06/16 00:45:01;;;;;;;6.23;1.40;;;19.20;99.90;;;;;;5087047;28;20228;-67
2022/06/16 00:47:31;;;;;;;3.60;1.10;;;19.70;99.90;;;;;;5086460;28;20186;-67
2022/06/16 00:50:04;;;;;;;8.03;1.23;;;19.50;99.90;;;;;;5080769;28;20185;-67
2022/06/16 00:52:33;;;;;;;3.77;0.90;;;19.90;99.90;;;;;;5081360;28;20226;-66
2022/06/16 00:55:18;;;;;;;4.33;0.77;;;20.00;99.90;;;;;;5086561;28;20303;-66
2022/06/16 00:57:49;;;;;;;3.60;1.00;;;19.90;99.90;;;;;;5083029;28;20229;-66
2022/06/16 01:00:33;;;;;;;3.87;1.20;;;19.60;99.90;;;;;;5085529;28;20187;-66
2022/06/16 01:03:01;;;;;;;2.70;0.90;;;19.60;99.90;;;;;;5086259;28;20883;-66
2022/06/16 01:05:29;;;;;;;2.97;0.77;;;20.10;99.90;;;;;;5091394;28;20204;-67
2022/06/16 01:07:58;;;;;;;4.43;1.03;;;20.40;99.90;;;;;;5074175;28;20722;-67
2022/06/16 01:10:41;;;;;;;5.50;0.97;;;20.50;99.90;;;;;;5076838;28;20176;-67
2022/06/16 01:13:42;;;;;;;5.17;1.10;;;20.90;99.90;;;;;;5093479;28;20183;-67
2022/06/16 01:16:32;;;;;;;2.67;1.37;;;21.40;99.90;;;;;;5094447;28;20187;-67
2022/06/16 01:19:34;;;;;;;3.33;0.90;;;21.60;99.90;;;;;;5081746;28;20179;-66
2022/06/16 01:22:32;;;;;;;2.63;0.80;;;21.70;99.90;;;;;;5081621;28;20187;-66
2022/06/16 01:25:30;;;;;;;2.00;0.97;;;22.10;99.90;;;;;;5081373;28;20187;-67
2022/06/16 01:28:19;;;;;;;4.53;0.83;;;22.50;99.90;;;;;;5092125;28;20229;-67
2022/06/16 01:31:14;;;;;;;2.50;0.70;;;22.00;99.90;;;;;;5075615;28;21025;-67
2022/06/16 01:33:57;;;;;;;1.27;0.63;;;21.90;99.90;;;;;;5062347;28;20249;-66
2022/06/16 01:36:45;;;;;;;1.37;0.70;;;22.10;99.90;;;;;;5071641;28;20229;-66
2022/06/16 01:39:45;;;;;;;0.87;0.50;;;22.20;99.90;;;;;;5071707;28;20183;-66
2022/06/16 01:42:49;;;;;;;4.37;1.07;;;22.40;99.90;;;;;;5039836;28;20626;-65
2022/06/16 01:45:49;;;;;;;1.23;0.60;;;22.00;99.90;;;;;;5066949;28;20197;-66
2022/06/16 01:48:20;;;;;;;0.80;0.50;;;21.80;99.90;;;;;;5088153;28;20566;-66
2022/06/16 01:50:56;;;;;;;2.13;0.60;;;21.80;99.90;;;;;;5091492;28;20239;-66
2022/06/16 01:53:35;;;;;;;1.40;0.70;;;22.20;99.90;;;;;;5091644;28;20190;-67
2022/06/16 01:56:11;;;;;;;0.80;0.60;;;22.40;99.90;;;;;;5091311;28;20183;-66
2022/06/16 01:58:45;;;;;;;3.07;0.60;;;22.30;99.90;;;;;;5091508;28;20189;-67
2022/06/16 02:01:17;;;;;;;3.90;0.70;;;22.40;99.90;;;;;;5090840;28;20671;-67
2022/06/16 02:03:54;;;;;;;5.70;0.80;;;22.60;99.90;;;;;;5091331;28;20265;-67
2022/06/16 02:06:29;;;;;;;1.70;0.80;;;23.00;99.90;;;;;;5091120;28;20182;-67
2022/06/16 02:09:03;;;;;;;3.80;0.93;;;22.90;99.90;;;;;;5092718;28;20178;-67
2022/06/16 02:11:35;;;;;;;2.13;0.80;;;22.40;99.90;;;;;;5091262;28;20198;-66
2022/06/16 02:14:15;;;;;;;4.03;1.23;;;22.80;99.90;;;;;;5092723;28;20249;-68
2022/06/16 02:16:43;;;;;;;2.90;0.90;;;23.50;99.90;;;;;;5088674;28;20203;-67
2022/06/16 02:19:14;;;;;;;4.07;1.00;;;23.40;99.90;;;;;;5062201;28;20255;-66
2022/06/16 02:21:48;;;;;;;4.93;1.00;;;23.30;99.90;;;;;;5071049;28;20195;-67
2022/06/16 02:24:22;;;;;;;3.77;0.70;;;23.20;99.90;;;;;;5091134;28;20632;-66
2022/06/16 02:26:53;;;;;;;3.77;1.00;;;24.00;99.90;;;;;;5090906;28;20279;-66
2022/06/16 02:29:29;;;;;;;8.00;0.93;;;24.00;99.90;;;;;;5091412;28;20179;-67
2022/06/16 02:32:24;;;;;;;2.80;0.90;;;23.80;99.90;;;;;;5091137;28;20235;-67
2022/06/16 02:35:04;;;;;;;3.60;0.60;;;23.50;99.90;;;;;;5091409;28;20261;-68
2022/06/16 02:37:48;;;;;;;4.00;0.80;;;23.70;99.90;;;;;;5091360;28;20684;-68
2022/06/16 02:41:09;;;;;;;1.10;0.53;;;23.60;99.90;;;;;;5090833;28;20234;-68
2022/06/16 02:43:47;;;;;;;4.43;0.67;;;23.50;99.90;;;;;;4993545;28;20273;-68
2022/06/16 02:46:52;;;;;;;4.93;0.80;;;23.30;99.90;;;;;;5082728;28;20243;-68
2022/06/16 02:49:39;;;;;;;5.73;0.70;;;23.30;99.90;;;;;;5091312;28;20223;-67
2022/06/16 02:52:15;;;;;;;1.60;0.40;;;23.60;99.90;;;;;;5076469;28;20702;-67
2022/06/16 02:55:06;;;;;;;0.73;0.40;;;24.20;99.90;;;;;;5094665;28;20206;-68
2022/06/16 02:57:34;;;;;;;1.73;0.40;;;24.70;99.90;;;;;;5094953;28;20262;-68
2022/06/16 03:00:09;;;;;;;1.90;0.47;;;24.70;99.90;;;;;;5076623;28;20199;-68
2022/06/16 03:02:40;;;;;;;1.83;0.70;;;24.20;99.90;;;;;;5074575;28;20179;-67
2022/06/16 03:05:09;;;;;;;4.23;0.60;;;24.20;98.60;;;;;;5074577;28;20178;-68
2022/06/16 03:07:37;;;;;;;7.53;0.73;;;24.20;99.30;;;;;;5078843;28;20179;-67
2022/06/16 03:10:06;;;;;;;4.83;0.90;;;24.30;97.40;;;;;;5094612;28;20167;-65
2022/06/16 03:12:34;;;;;;;5.13;0.77;;;23.90;99.90;;;;;;5094109;28;20232;-66
2022/06/16 03:15:02;;;;;;;4.03;1.10;;;23.20;99.90;;;;;;5094548;28;20588;-66
2022/06/16 03:17:31;;;;;;;8.83;1.10;;;22.90;99.90;;;;;;5094338;28;20574;-66
2022/06/16 03:19:59;;;;;;;6.93;1.73;;;23.10;99.90;;;;;;5095278;28;20180;-67
2022/06/16 03:22:27;;;;;;;3.67;3.37;;;23.00;99.90;;;;;;5094991;28;20184;-67
2022/06/16 03:24:55;;;;;;;5.97;2.53;;;22.40;99.90;;;;;;5092839;28;20187;-67
2022/06/16 03:27:22;;;;;;;2.00;1.40;;;22.60;99.90;;;;;;5095590;28;20219;-66
2022/06/16 03:29:52;;;;;;;5.23;0.90;;;23.60;99.90;;;;;;5095790;28;20228;-66
2022/06/16 03:32:19;;;;;;;1.70;0.83;;;23.80;99.90;;;;;;5095384;28;20224;-67
2022/06/16 03:34:47;;;;;;;7.63;4.60;;;23.60;99.90;;;;;;5095231;28;20669;-67
2022/06/16 03:37:15;;;;;;;2.50;1.60;;;24.00;99.90;;;;;;5095630;28;20180;-67
2022/06/16 03:39:42;;;;;;;8.13;6.30;;;24.60;99.90;;;;;;5095434;28;20183;-66
2022/06/16 03:42:10;;;;;;;1.43;1.00;;;24.40;99.90;;;;;;5095761;28;20171;-66
2022/06/16 03:44:38;;;;;;;4.07;1.80;;;24.10;99.90;;;;;;5095353;28;20256;-66
2022/06/16 03:47:06;;;;;;;4.30;1.00;;;24.20;99.90;;;;;;5095366;28;20172;-68
2022/06/16 03:49:33;;;;;;;5.93;1.47;;;24.20;99.90;;;;;;5095295;28;20520;-67
2022/06/16 03:52:01;;;;;;;5.53;3.27;;;24.60;99.80;;;;;;5094791;28;20171;-68
2022/06/16 03:54:29;;;;;;;1.93;0.70;;;25.10;99.10;;;;;;5094526;28;20206;-67
2022/06/16 03:56:56;;;;;;;2.93;0.93;;;24.50;97.60;;;;;;5095171;28;20167;-67
2022/06/16 03:59:29;;;;;;;1.67;0.40;;;23.50;99.90;;;;;;5095476;28;20181;-68
2022/06/16 04:01:57;;;;;;;3.03;0.70;;;22.30;99.90;;;;;;5095223;28;20639;-68
2022/06/16 04:04:25;;;;;;;2.90;1.60;;;22.10;99.90;;;;;;5094855;28;20225;-67
2022/06/16 04:06:53;;;;;;;2.70;1.90;;;22.50;99.90;;;;;;5094970;28;20176;-68
2022/06/16 04:09:20;;;;;;;1.33;0.80;;;22.80;99.90;;;;;;5095269;28;20174;-69
2022/06/16 04:11:48;;;;;;;3.93;3.53;;;22.80;99.90;;;;;;5076559;28;20182;-68
2022/06/16 04:14:17;;;;;;;2.33;2.07;;;24.00;99.90;;;;;;5094597;28;20278;-68
2022/06/16 04:16:48;;;;;;;3.13;1.73;;;23.20;99.90;;;;;;5094812;28;20232;-68
2022/06/16 04:19:18;;;;;;;2.10;0.77;;;23.30;99.90;;;;;;5094566;28;20187;-68
2022/06/16 04:21:48;;;;;;;3.13;0.50;;;23.50;99.90;;;;;;5094640;28;20183;-67
2022/06/16 04:24:17;;;;;;;2.93;1.30;;;24.00;99.90;;;;;;5094313;28;20170;-67
2022/06/16 04:26:45;;;;;;;12.30;1.00;;;23.60;99.90;;;;;;5094287;28;20325;-66
2022/06/16 04:29:14;;;;;;;4.03;1.33;;;24.10;99.90;;;;;;5076288;28;20309;-66
2022/06/16 04:31:42;;;;;;;1.53;0.70;;;24.10;99.90;;;;;;5094587;28;20216;-67
2022/06/16 04:34:10;;;;;;;1.00;0.50;;;24.40;98.40;;;;;;5094397;28;20198;-68
2022/06/16 04:36:37;;;;;;;1.97;0.73;;;23.20;99.90;;;;;;5076206;28;20285;-67
2022/06/16 04:39:05;;;;;;;1.57;0.70;;;22.70;99.90;;;;;;5094226;28;20179;-67
2022/06/16 04:41:35;;;;;;;1.20;0.50;;;21.90;99.90;;;;;;5094237;28;20193;-67
2022/06/16 04:44:02;;;;;;;7.27;0.63;;;21.50;99.90;;;;;;5093764;28;20182;-66
2022/06/16 04:46:36;;;;;;;2.57;0.60;;;20.90;99.90;;;;;;5088068;28;20182;-68
2022/06/16 04:49:04;;;;;;;0.57;0.43;;;20.60;99.90;;;;;;5096534;28;20181;-67
2022/06/16 04:51:32;;;;;;;4.53;0.83;;;20.70;99.90;;;;;;5095813;28;20207;-67
2022/06/16 04:54:00;;;;;;;2.73;0.50;;;20.40;99.90;;;;;;5096655;28;20690;-69
2022/06/16 04:56:27;;;;;;;2.30;0.90;;;20.40;99.90;;;;;;5094061;28;20524;-68
2022/06/16 04:58:55;;;;;;;7.43;6.27;;;20.40;99.90;;;;;;5094024;28;20264;-68
2022/06/16 05:01:23;;;;;;;5.77;1.50;;;20.30;99.90;;;;;;5087695;28;20194;-68
2022/06/16 05:03:51;;;;;;;4.17;1.10;;;20.30;99.90;;;;;;5073135;28;20689;-68
2022/06/16 05:06:19;;;;;;;3.50;1.03;;;20.30;99.90;;;;;;5073434;28;20233;-67
2022/06/16 05:08:48;;;;;;;3.77;1.00;;;20.30;99.90;;;;;;5073513;28;20715;-67
2022/06/16 05:11:16;;;;;;;7.77;4.33;;;20.20;99.90;;;;;;5073286;28;20223;-68
2022/06/16 05:13:44;;;;;;;3.37;2.73;;;20.20;99.90;;;;;;5073953;28;20233;-67
2022/06/16 05:16:11;;;;;;;0.70;0.40;;;20.10;99.90;;;;;;5073662;28;20179;-67
2022/06/16 05:18:39;;;;;;;4.13;2.40;;;19.90;99.90;;;;;;5073841;28;20178;-68
2022/06/16 05:21:09;;;;;;;3.17;1.10;;;19.90;99.90;;;;;;5055258;28;20188;-68
2022/06/16 05:23:37;;;;;;;1.90;0.60;;;19.80;99.90;;;;;;5073332;28;20533;-67
2022/06/16 05:26:07;;;;;;;3.10;0.60;;;19.80;99.90;;;;;;5072910;28;20665;-68
2022/06/16 05:28:36;;;;;;;1.13;0.40;;;19.70;99.90;;;;;;5073216;28;20545;-67
2022/06/16 05:31:04;;;;;;;2.87;0.77;;;19.60;99.90;;;;;;5072960;28;20187;-67
2022/06/16 05:33:32;;;;;;;4.03;0.80;;;19.70;99.90;;;;;;5072994;28;20170;-68
2022/06/16 05:36:01;;;;;;;0.97;0.60;;;19.60;99.90;;;;;;5073152;28;20212;-68
2022/06/16 05:38:30;;;;;;;2.03;0.97;;;19.60;99.90;;;;;;5073248;28;20200;-67
2022/06/16 05:41:01;;;;;;;9.70;1.17;;;19.60;99.90;;;;;;5076008;28;20688;-66
2022/06/16 05:43:29;;;;;;;4.10;0.97;;;19.60;99.90;;;;;;5092245;28;20174;-65
2022/06/16 05:45:59;;;;;;;1.37;1.07;;;19.40;99.90;;;;;;5092256;28;20187;-66
2022/06/16 05:48:27;;;;;;;1.60;1.00;;;19.50;99.90;;;;;;5073553;28;20185;-67
2022/06/16 05:50:55;;;;;;;5.53;1.30;;;19.50;99.90;;;;;;5092638;28;20257;-66
2022/06/16 05:53:23;;;;;;;2.70;1.77;;;19.50;99.90;;;;;;5092935;28;20188;-66
2022/06/16 05:55:51;;;;;;;2.07;1.10;;;19.60;99.90;;;;;;5093081;28;20308;-66
2022/06/16 05:58:19;;;;;;;1.00;0.90;;;19.60;99.90;;;;;;5092325;28;20240;-66
2022/06/16 06:00:47;;;;;;;0.80;0.60;;;19.40;99.90;;;;;;5092916;28;20583;-66
2022/06/16 06:03:14;;;;;;;2.20;0.80;;;19.30;99.90;;;;;;5091937;28;20250;-66
2022/06/16 06:05:42;;;;;;;3.40;0.60;;;19.30;99.90;;;;;;5092795;28;20172;-67
2022/06/16 06:16:35;;;;;;;18.47;3.13;;;19.10;99.90;;;;;;5094584;28;20193;-67
2022/06/16 06:19:24;;;;;;;7.77;1.50;;;19.10;99.90;;;;;;5096948;28;20183;-66
2022/06/16 06:22:13;;;;;;;26.03;3.30;;;18.90;99.90;;;;;;5092930;28;20183;-67
2022/06/16 06:24:50;;;;;;;17.40;2.40;;;18.90;99.90;;;;;;5078947;28;20191;-66
2022/06/16 06:27:34;;;;;;;18.27;2.40;;;18.80;99.90;;;;;;5077208;28;20576;-66
2022/06/16 06:30:05;;;;;;;26.87;2.97;;;18.70;99.90;;;;;;5076628;28;20172;-66
2022/06/16 06:32:33;;;;;;;29.53;2.70;;;18.60;99.90;;;;;;5076343;28;20188;-66
2022/06/16 06:35:01;;;;;;;6.03;1.50;;;18.60;99.90;;;;;;5076136;28;20268;-67
2022/06/16 06:37:29;;;;;;;4.93;0.90;;;18.50;99.90;;;;;;5082094;28;20187;-67
2022/06/16 06:39:57;;;;;;;4.33;1.30;;;18.50;99.90;;;;;;5096002;28;20234;-67
2022/06/16 06:42:25;;;;;;;7.67;1.17;;;18.50;99.90;;;;;;5096608;28;20179;-66
2022/06/16 06:44:53;;;;;;;6.27;1.20;;;18.40;99.90;;;;;;5096482;28;20224;-67
2022/06/16 06:47:27;;;;;;;4.07;1.57;;;18.40;99.90;;;;;;5096438;28;20180;-67
2022/06/16 06:49:54;;;;;;;3.73;1.10;;;18.30;99.90;;;;;;5096130;28;20184;-66
2022/06/16 06:52:23;;;;;;;2.20;1.00;;;18.20;99.90;;;;;;5096354;28;20180;-66
2022/06/16 06:58:22;;;;;;;6.57;1.30;;;18.10;99.90;;;;;;5095158;28;20598;-66
2022/06/16 07:00:51;;;;;;;1.93;1.00;;;17.90;99.90;;;;;;5096009;28;20189;-66
2022/06/16 07:03:19;;;;;;;4.83;1.33;;;17.70;99.90;;;;;;5095954;28;20174;-66
2022/06/16 07:05:48;;;;;;;1.90;1.40;;;17.60;99.90;;;;;;5096099;28;20219;-67
2022/06/16 07:08:15;;;;;;;2.07;1.20;;;17.40;99.90;;;;;;5095920;28;20263;-67
2022/06/16 07:10:43;;;;;;;4.30;1.47;;;17.30;99.90;;;;;;5095770;28;20647;-66
2022/06/16 07:13:11;;;;;;;2.53;1.43;;;17.30;99.90;;;;;;5095418;28;20179;-66
2022/06/16 07:15:39;;;;;;;1.57;1.00;;;17.30;99.90;;;;;;5095568;28;20221;-66
2022/06/16 07:18:06;;;;;;;3.33;1.20;;;17.30;99.90;;;;;;5095333;28;20179;-67
2022/06/16 07:20:35;;;;;;;3.67;1.27;;;17.20;99.90;;;;;;5095820;28;20270;-67
2022/06/16 07:23:02;;;;;;;6.73;3.40;;;17.20;99.90;;;;;;5091438;28;20578;-66
2022/06/16 07:25:30;;;;;;;4.73;2.30;;;17.20;99.90;;;;;;5072983;28;20607;-66
2022/06/16 07:27:58;;;;;;;2.40;1.57;;;17.00;99.90;;;;;;5093118;28;20473;-66
2022/06/16 07:30:26;;;;;;;2.27;1.60;;;16.90;99.90;;;;;;5094024;28;20195;-65
2022/06/16 07:32:54;;;;;;;4.43;3.00;;;16.80;99.90;;;;;;5094231;28;20179;-66
2022/06/16 07:35:23;;;;;;;3.43;1.50;;;16.80;99.90;;;;;;5092564;28;20217;-66
2022/06/16 07:37:51;;;;;;;4.20;1.90;;;16.70;99.90;;;;;;5093656;28;20569;-65
2022/06/16 07:40:20;;;;;;;2.47;1.10;;;16.60;99.90;;;;;;5070944;28;20210;-66
2022/06/16 07:42:49;;;;;;;1.97;1.20;;;16.40;99.90;;;;;;5079321;28;20192;-66
2022/06/16 07:45:17;;;;;;;3.50;1.33;;;16.40;99.90;;;;;;5083221;28;20197;-66
2022/06/16 07:47:44;;;;;;;7.23;1.40;;;16.40;99.90;;;;;;5084911;28;20537;-67
2022/06/16 07:50:12;;;;;;;1.90;1.50;;;16.40;99.90;;;;;;5092828;28;20557;-66
2022/06/16 07:52:40;;;;;;;3.83;1.60;;;16.30;99.90;;;;;;5085072;28;20226;-66
2022/06/16 07:55:09;;;;;;;4.13;1.60;;;16.10;99.90;;;;;;5087919;28;20585;-66
2022/06/16 07:57:48;;;;;;;2.67;1.70;;;16.00;99.90;;;;;;5087548;28;20171;-66
2022/06/16 08:00:21;;;;;;;6.87;2.10;;;16.00;99.90;;;;;;5093945;28;20179;-66
2022/06/16 08:02:48;;;;;;;7.63;1.37;;;16.00;99.90;;;;;;5093182;28;20206;-66
2022/06/16 08:05:17;;;;;;;4.87;1.90;;;16.00;99.90;;;;;;5093880;28;20294;-66
2022/06/16 08:07:44;;;;;;;7.23;1.63;;;15.90;99.90;;;;;;5093358;28;20175;-66
2022/06/16 08:10:17;;;;;;;3.83;2.00;;;16.00;99.90;;;;;;5093364;28;20190;-66
2022/06/16 08:12:44;;;;;;;8.00;2.07;;;15.90;99.90;;;;;;5092933;28;20712;-65
2022/06/16 08:15:13;;;;;;;1.80;1.27;;;15.80;99.90;;;;;;5093561;28;20239;-65
2022/06/16 08:17:43;;;;;;;4.13;1.63;;;15.70;99.90;;;;;;5075633;28;20542;-66
2022/06/16 08:20:12;;;;;;;5.17;1.47;;;15.80;99.90;;;;;;5075251;28;20278;-66
2022/06/16 08:22:40;;;;;;;1.63;1.27;;;15.70;99.90;;;;;;5093677;28;20179;-66
2022/06/16 08:25:10;;;;;;;5.17;1.13;;;15.60;99.90;;;;;;5093277;28;20727;-67
2022/06/16 08:27:39;;;;;;;3.77;1.40;;;15.40;99.90;;;;;;5093430;28;20179;-67
2022/06/16 08:30:14;;;;;;;3.93;1.47;;;15.30;99.90;;;;;;5093027;28;20277;-67
2022/06/16 08:32:42;;;;;;;4.73;1.30;;;15.10;99.90;;;;;;5093280;28;20514;-66
2022/06/16 08:35:10;;;;;;;4.90;1.87;;;15.00;99.90;;;;;;5093225;28;20586;-66
2022/06/16 08:37:38;;;;;;;2.50;1.40;;;14.90;99.90;;;;;;5074975;28;20727;-66
2022/06/16 08:40:07;;;;;;;4.97;1.43;;;14.80;99.90;;;;;;5092382;28;20238;-66
2022/06/16 08:43:06;;;;;;;3.93;1.87;;;14.70;99.90;;;;;;5092979;28;20179;-66
2022/06/16 08:45:38;;;;;;;2.10;1.60;;;14.50;99.90;;;;;;5093186;28;20179;-67
2022/06/16 08:48:21;;;;;;;2.67;1.80;;;14.30;99.90;;;;;;5092997;28;20179;-66
2022/06/16 08:51:00;;;;;;;2.23;1.40;;;14.20;99.90;;;;;;5089931;28;20172;-66
2022/06/16 08:54:03;;;;;;;8.23;1.73;;;13.90;99.90;;;;;;5085191;28;20221;-66
2022/06/16 08:56:37;;;;;;;1.20;1.07;;;13.80;99.90;;;;;;5056680;28;20260;-66
2022/06/16 08:59:32;;;;;;;2.30;1.23;;;13.60;99.90;;;;;;5092051;28;20205;-65
2022/06/16 09:02:28;;;;;;;3.50;1.20;;;13.40;99.90;;;;;;5092376;28;20517;-66
2022/06/16 09:05:12;;;;;;;1.20;1.00;;;13.30;99.90;;;;;;5064869;28;20225;-67
2022/06/16 09:07:46;;;;;;;4.60;1.67;;;13.10;99.90;;;;;;5089973;28;20189;-65
2022/06/16 09:10:37;;;;;;;2.57;1.10;;;13.00;99.90;;;;;;5090902;28;20181;-65
2022/06/16 09:13:32;;;;;;;3.57;1.93;;;12.90;99.90;;;;;;5089565;28;20667;-66
2022/06/16 09:16:33;;;;;;;2.93;1.40;;;12.80;99.90;;;;;;5092060;28;20217;-65
2022/06/16 09:19:18;;;;;;;5.33;2.30;;;12.70;99.90;;;;;;5092907;28;20533;-66
2022/06/16 09:21:55;;;;;;;4.47;1.93;;;12.70;99.90;;;;;;5093531;28;20262;-66
2022/06/16 09:24:47;;;;;;;6.73;2.03;;;12.70;99.90;;;;;;5090255;28;20185;-66
2022/06/16 09:27:46;;;;;;;4.73;2.23;;;12.70;99.90;;;;;;5091561;28;20234;-67
2022/06/16 09:30:20;;;;;;;2.80;1.80;;;12.60;99.90;;;;;;5088851;28;20250;-67
2022/06/16 09:33:02;;;;;;;4.63;2.20;;;12.60;99.90;;;;;;5092212;28;20178;-67
2022/06/16 09:35:58;;;;;;;4.60;2.17;;;12.70;99.90;;;;;;5091697;28;20248;-67
2022/06/16 09:38:26;;;;;;;3.93;2.07;;;12.70;99.90;;;;;;5077921;28;20182;-66
2022/06/16 09:40:59;;;;;;;3.97;2.13;;;12.60;99.90;;;;;;5073714;28;20250;-66
2022/06/16 09:43:37;;;;;;;4.83;2.00;;;12.60;99.90;;;;;;5079954;28;20186;-67
2022/06/16 09:46:24;;;;;;;6.27;2.10;;;12.60;99.90;;;;;;5092208;28;20263;-67
2022/06/16 09:49:04;;;;;;;5.00;2.23;;;12.60;99.90;;;;;;5091634;28;20258;-66
2022/06/16 09:51:59;;;;;;;3.10;2.13;;;12.60;99.90;;;;;;5091838;28;20180;-67
2022/06/16 09:54:43;;;;;;;3.30;2.27;;;12.50;99.90;;;;;;5073450;28;20202;-67
2022/06/16 09:57:29;;;;;;;3.53;2.20;;;12.40;99.90;;;;;;5091710;28;20732;-68
2022/06/16 10:00:13;;;;;;;6.47;2.40;;;12.20;99.90;;;;;;5091295;28;20176;-67
2022/06/16 10:02:53;;;;;;;2.40;1.83;;;12.00;99.90;;;;;;5091709;28;20186;-67
2022/06/16 10:05:39;;;;;;;7.70;2.67;;;11.90;99.90;;;;;;5091873;28;20186;-66
2022/06/16 10:08:36;;;;;;;4.20;2.30;;;11.90;99.90;;;;;;5091153;28;20663;-67
2022/06/16 10:11:15;;;;;;;2.50;1.73;;;11.80;99.90;;;;;;5089882;28;20195;-68
2022/06/16 10:13:54;;;;;;;6.90;2.33;;;11.70;99.90;;;;;;5081950;28;20176;-67
2022/06/16 10:16:34;;;;;;;3.97;2.13;;;11.60;99.90;;;;;;5092732;28;20242;-68
2022/06/16 10:19:02;;;;;;;5.03;2.90;;;11.50;99.90;;;;;;5074687;28;20180;-67
2022/06/16 10:21:29;;;;;;;3.13;2.40;;;11.50;99.90;;;;;;5092968;28;20255;-68
2022/06/16 10:24:00;;;;;;;3.47;2.27;;;11.50;99.90;;;;;;5092711;28;20168;-68
2022/06/16 10:26:28;;;;;;;4.13;2.33;;;11.40;99.90;;;;;;5092769;28;20282;-67
2022/06/16 10:29:28;;;;;;;4.07;2.03;;;11.30;99.90;;;;;;5092654;28;20213;-68
2022/06/16 10:31:58;;;;;;;3.63;2.10;;;11.20;99.90;;;;;;5093041;28;20180;-67
2022/06/16 10:34:44;;;;;;;3.80;1.97;;;11.30;99.90;;;;;;5092841;28;20527;-67
2022/06/16 10:37:27;;;;;;;3.80;2.10;;;11.10;99.90;;;;;;5092572;28;20277;-67
2022/06/16 10:40:08;;;;;;;3.23;2.00;;;11.10;99.90;;;;;;5092850;28;20180;-68
2022/06/16 10:42:50;;;;;;;3.43;1.80;;;11.00;99.90;;;;;;5074396;28;20189;-67
2022/06/16 10:45:38;;;;;;;4.40;2.00;;;10.90;99.90;;;;;;5074651;28;20216;-68
2022/06/16 10:48:09;;;;;;;3.77;2.17;;;10.80;99.90;;;;;;5092518;28;20173;-67
2022/06/16 10:50:41;;;;;;;4.13;2.30;;;10.70;99.90;;;;;;5092531;28;20205;-67
2022/06/16 10:53:32;;;;;;;3.23;2.27;;;10.80;99.90;;;;;;5092518;28;20167;-67
2022/06/16 10:56:11;;;;;;;2.57;1.70;;;10.80;99.90;;;;;;5091476;28;20212;-67
2022/06/16 10:58:46;;;;;;;4.67;2.37;;;10.70;99.90;;;;;;5092828;28;20653;-67
2022/06/16 11:01:44;;;;;;;9.63;3.23;;;10.70;99.90;;;;;;5091212;28;20172;-66
2022/06/16 11:04:19;;;;;;;3.67;2.13;;;10.70;99.90;;;;;;5039645;28;20238;-66
2022/06/16 11:06:59;;;;;;;2.97;2.33;;;10.70;99.90;;;;;;5095486;28;20259;-66
2022/06/16 11:09:32;;;;;;;3.10;2.20;;;10.60;99.90;;;;;;5096313;28;20177;-67
2022/06/16 11:12:04;;;;;;;5.53;2.97;;;10.60;99.90;;;;;;5093157;28;20247;-66
2022/06/16 11:14:44;;;;;;;3.17;2.30;;;10.60;99.90;;;;;;5092728;28;20341;-66
2022/06/16 11:17:30;;;;;;;3.07;2.30;;;10.50;99.90;;;;;;5084956;28;20231;-67
2022/06/16 11:20:05;;;;;;;3.10;2.37;;;10.40;99.90;;;;;;5078551;28;20199;-68
2022/06/16 11:22:40;;;;;;;4.40;2.67;;;10.40;99.90;;;;;;5076010;28;20202;-66
2022/06/16 11:25:30;;;;;;;2.57;2.30;;;10.40;99.90;;;;;;5060079;28;20652;-66
2022/06/16 11:28:10;;;;;;;4.97;2.17;;;10.30;99.90;;;;;;5057701;28;20589;-67
2022/06/16 11:30:43;;;;;;;3.13;2.60;;;10.30;99.90;;;;;;5075977;28;20171;-67
2022/06/16 11:36:52;;;;;;;5.13;2.53;;;10.30;99.90;;;;;;5076606;28;20276;-67
2022/06/16 11:39:27;;;;;;;2.90;2.07;;;10.30;99.90;;;;;;5080430;28;20634;-69
2022/06/16 11:41:57;;;;;;;3.20;2.20;;;10.20;99.90;;;;;;5080842;28;20187;-67
2022/06/16 11:44:27;;;;;;;4.07;2.37;;;10.20;99.90;;;;;;5079181;28;20516;-67
2022/06/16 11:47:22;;;;;;;4.43;2.60;;;10.20;99.90;;;;;;5086353;28;20224;-66
2022/06/16 11:50:10;;;;;;;3.63;2.53;;;10.20;99.90;;;;;;5091166;28;20525;-65
2022/06/16 11:52:40;;;;;;;3.97;2.87;;;10.10;99.90;;;;;;5095918;28;20173;-66
2022/06/16 11:55:27;;;;;;;4.53;2.63;;;10.10;99.90;;;;;;5096118;28;20220;-67
2022/06/16 11:58:00;;;;;;;5.23;2.23;;;9.90;99.90;;;;;;5095326;28;20175;-67
2022/06/16 12:00:33;;;;;;;5.90;2.43;;;9.90;99.90;;;;;;5095434;28;20172;-67
2022/06/16 12:03:30;;;;;;;4.03;2.03;;;9.80;99.90;;;;;;5095278;28;20175;-67
2022/06/16 12:06:44;;;;;;;3.70;2.30;;;9.70;99.90;;;;;;5095224;28;20183;-68
2022/06/16 12:09:17;;;;;;;2.90;2.40;;;9.50;99.90;;;;;;4994074;28;20282;-67
2022/06/16 12:11:50;;;;;;;4.67;2.37;;;9.50;99.90;;;;;;5087518;28;20581;-67
2022/06/16 12:14:39;;;;;;;4.03;2.73;;;9.40;99.90;;;;;;5081592;28;20203;-67
2022/06/16 12:17:19;;;;;;;3.63;2.47;;;9.40;99.90;;;;;;5094848;28;20188;-67
2022/06/16 12:20:12;;;;;;;3.30;2.27;;;9.30;99.90;;;;;;5095065;28;20539;-65
2022/06/16 12:22:49;;;;;;;5.87;2.77;;;9.30;99.90;;;;;;5094564;28;20180;-66
2022/06/16 12:25:21;;;;;;;7.27;3.00;;;9.20;99.90;;;;;;5094474;28;20211;-66
2022/06/16 12:27:52;;;;;;;4.07;2.77;;;9.20;99.90;;;;;;5094705;28;20180;-67
2022/06/16 12:30:30;;;;;;;6.90;2.73;;;9.10;99.90;;;;;;5094579;28;20190;-66
2022/06/16 12:33:09;;;;;;;5.90;2.40;;;9.10;99.90;;;;;;5094641;28;20194;-66
2022/06/16 12:35:36;;;;;;;3.53;2.67;;;9.00;99.90;;;;;;5094281;28;20213;-66
2022/06/16 12:38:19;;;;;;;3.67;2.53;;;9.00;99.90;;;;;;5076297;28;20179;-67
2022/06/16 12:41:13;;;;;;;4.23;2.80;;;9.00;99.90;;;;;;5094431;28;20210;-66
2022/06/16 12:43:46;;;;;;;5.07;2.30;;;9.10;99.90;;;;;;5094240;28;20265;-65
2022/06/16 12:46:23;;;;;;;5.63;2.67;;;9.30;99.90;;;;;;5094773;28;20255;-68
2022/06/16 12:48:56;;;;;;;3.40;2.43;;;9.40;99.90;;;;;;5096137;28;20197;-67
2022/06/16 12:51:36;;;;;;;4.97;2.87;;;9.40;99.90;;;;;;5100495;28;20262;-66
2022/06/16 12:54:15;;;;;;;2.83;2.30;;;9.40;99.90;;;;;;5094548;28;20250;-66
2022/06/16 12:57:23;;;;;;;3.77;2.70;;;9.20;99.90;;;;;;5094614;28;20261;-66
2022/06/16 13:00:01;;;;;;;6.10;3.43;;;9.20;99.90;;;;;;5012234;28;20197;-67
2022/06/16 13:02:36;;;;;;;5.07;3.40;;;9.10;99.90;;;;;;5084198;28;20191;-67
2022/06/16 13:05:09;;;;;;;4.97;3.43;;;9.10;99.90;;;;;;5094090;28;20182;-67
2022/06/16 13:07:41;;;;;;;6.40;3.33;;;9.10;99.90;;;;;;5093879;28;20595;-66
2022/06/16 13:10:11;;;;;;;4.43;2.93;;;9.00;99.90;;;;;;5093537;28;20229;-66
2022/06/16 13:12:43;;;;;;;6.80;3.77;;;9.00;99.90;;;;;;5093615;28;20176;-66
2022/06/16 13:15:33;;;;;;;7.00;3.87;;;9.00;99.90;;;;;;5093952;28;20204;-67
2022/06/16 13:18:16;;;;;;;5.77;3.90;;;9.00;99.90;;;;;;5093657;28;20256;-65
2022/06/16 13:20:51;;;;;;;5.37;3.70;;;8.90;99.90;;;;;;5092973;28;20512;-67
2022/06/16 13:23:35;;;;;;;6.80;4.20;;;8.90;99.90;;;;;;5091524;28;20191;-66
2022/06/16 13:26:27;;;;;;;4.60;3.17;;;8.80;99.90;;;;;;5087090;28;20226;-66
2022/06/16 13:29:19;;;;;;;7.97;4.20;;;8.80;99.90;;;;;;5093366;28;20183;-66
2022/06/16 13:31:46;;;;;;;3.93;2.70;;;8.80;99.90;;;;;;5092695;28;20176;-67
2022/06/16 13:34:21;;;;;;;5.77;3.33;;;8.90;99.90;;;;;;5091743;28;20190;-67
2022/06/16 13:36:54;;;;;;;6.23;3.43;;;8.90;99.90;;;;;;5092566;28;20246;-66
2022/06/16 13:40:02;;;;;;;6.30;3.10;;;9.00;99.90;;;;;;5093298;28;20178;-66
2022/06/16 13:42:43;;;;;;;4.03;2.57;;;9.00;99.90;;;;;;5083234;28;20266;-66
2022/06/16 13:45:14;;;;;;;3.80;2.50;;;9.20;99.90;;;;;;5071104;28;20291;-66